Terminal Aerodrome Forecast
Issued by NWS

Home | Current Version | Previous Version | Text Only | Print | Product List | Glossary On
Versions: 1 2 3 4 5 6 7 8 9 10 11 12 13 14 15 16 17 18 19 20 21 22
000
FTUS43 KEAX 210200 AAA
TAFSTJ
TAF AMD
KSTJ 210200Z 2102/2124 12006KT 5SM BR BKN020
      TEMPO 2104/2106 2SM BR
     FM210600 VRB04KT 1/2SM FG BKN003
     FM211200 23006KT 3SM BR BKN015
     FM211600 22007KT 5SM BR BKN035
     FM211800 21008KT P6SM SCT090
     FM212300 VRB03KT P6SM FEW150=

USA.gov is the U.S. government's official web portal to all federal, state and local government web resources and services.